sensor_id;sensor_type;location;lat;lon;timestamp;temperature;humidity
3998;DHT22;61314;53.444;9.902;2022-07-24T00:01:56;12.60;99.90
3998;DHT22;61314;53.444;9.902;2022-07-24T00:04:23;12.60;99.90
3998;DHT22;61314;53.444;9.902;2022-07-24T00:09:18;12.60;99.90
3998;DHT22;61314;53.444;9.902;2022-07-24T00:14:12;12.50;99.90
3998;DHT22;61314;53.444;9.902;2022-07-24T01:35:45;11.80;99.90
3998;DHT22;61314;53.444;9.902;2022-07-24T01:38:12;11.80;99.90
3998;DHT22;61314;53.444;9.902;2022-07-24T01:40:42;11.80;99.90
3998;DHT22;61314;53.444;9.902;2022-07-24T01:43:09;11.80;99.90
3998;DHT22;61314;53.444;9.902;2022-07-24T01:45:36;11.80;99.90
3998;DHT22;61314;53.444;9.902;2022-07-24T01:48:03;11.80;99.90
3998;DHT22;61314;53.444;9.902;2022-07-24T01:50:30;11.80;99.90
3998;DHT22;61314;53.444;9.902;2022-07-24T01:52:58;11.80;99.90
3998;DHT22;61314;53.444;9.902;2022-07-24T01:55:25;11.70;99.90
3998;DHT22;61314;53.444;9.902;2022-07-24T01:57:52;11.80;99.90
3998;DHT22;61314;53.444;9.902;2022-07-24T02:00:19;11.70;99.90
3998;DHT22;61314;53.444;9.902;2022-07-24T02:02:46;11.70;99.90
3998;DHT22;61314;53.444;9.902;2022-07-24T02:05:14;11.70;99.90
3998;DHT22;61314;53.444;9.902;2022-07-24T02:07:42;11.70;99.90
3998;DHT22;61314;53.444;9.902;2022-07-24T02:10:11;11.70;99.90
3998;DHT22;61314;53.444;9.902;2022-07-24T02:12:38;11.60;99.90
3998;DHT22;61314;53.444;9.902;2022-07-24T02:15:06;11.60;99.90
3998;DHT22;61314;53.444;9.902;2022-07-24T02:17:33;11.60;99.90
3998;DHT22;61314;53.444;9.902;2022-07-24T02:19:59;11.60;99.90
3998;DHT22;61314;53.444;9.902;2022-07-24T06:16:27;14.80;99.90
3998;DHT22;61314;53.444;9.902;2022-07-24T06:26:16;15.70;99.90
3998;DHT22;61314;53.444;9.902;2022-07-24T06:28:43;15.70;99.90
3998;DHT22;61314;53.444;9.902;2022-07-24T06:31:10;16.00;99.90
3998;DHT22;61314;53.444;9.902;2022-07-24T06:33:43;16.10;99.90
3998;DHT22;61314;53.444;9.902;2022-07-24T06:36:13;16.40;99.90
3998;DHT22;61314;53.444;9.902;2022-07-24T06:38:40;16.80;99.90
3998;DHT22;61314;53.444;9.902;2022-07-24T06:41:06;17.00;99.90
3998;DHT22;61314;53.444;9.902;2022-07-24T06:43:33;17.20;99.90
3998;DHT22;61314;53.444;9.902;2022-07-24T06:46:00;17.40;99.90
3998;DHT22;61314;53.444;9.902;2022-07-24T06:48:28;17.40;99.90
3998;DHT22;61314;53.444;9.902;2022-07-24T06:50:56;17.70;99.90
3998;DHT22;61314;53.444;9.902;2022-07-24T06:55:50;18.10;99.90
3998;DHT22;61314;53.444;9.902;2022-07-24T06:58:20;18.30;99.90
3998;DHT22;61314;53.444;9.902;2022-07-24T07:00:48;18.40;99.90
3998;DHT22;61314;53.444;9.902;2022-07-24T07:03:15;18.70;99.90
3998;DHT22;61314;53.444;9.902;2022-07-24T07:18:01;19.80;99.90
3998;DHT22;61314;53.444;9.902;2022-07-24T07:30:17;20.70;99.90
3998;DHT22;61314;53.444;9.902;2022-07-24T07:47:36;22.00;99.90
3998;DHT22;61314;53.444;9.902;2022-07-24T07:52:32;22.50;99.90
3998;DHT22;61314;53.444;9.902;2022-07-24T08:00:14;23.10;99.90
3998;DHT22;61314;53.444;9.902;2022-07-24T08:15:06;23.70;99.90
3998;DHT22;61314;53.444;9.902;2022-07-24T08:20:00;24.40;99.90
3998;DHT22;61314;53.444;9.902;2022-07-24T08:32:16;24.80;99.90
3998;DHT22;61314;53.444;9.902;2022-07-24T08:42:09;26.00;99.90
3998;DHT22;61314;53.444;9.902;2022-07-24T08:47:06;26.20;99.90
3998;DHT22;61314;53.444;9.902;2022-07-24T08:49:36;26.60;99.90
3998;DHT22;61314;53.444;9.902;2022-07-24T08:57:03;26.80;99.90
3998;DHT22;61314;53.444;9.902;2022-07-24T08:59:31;26.90;99.90
3998;DHT22;61314;53.444;9.902;2022-07-24T09:01:58;27.20;99.90
3998;DHT22;61314;53.444;9.902;2022-07-24T09:06:59;27.40;99.90
3998;DHT22;61314;53.444;9.902;2022-07-24T09:12:14;28.00;99.90
3998;DHT22;61314;53.444;9.902;2022-07-24T09:33:18;29.10;95.50
3998;DHT22;61314;53.444;9.902;2022-07-24T09:35:52;29.10;95.70
3998;DHT22;61314;53.444;9.902;2022-07-24T09:40:56;29.20;94.20
3998;DHT22;61314;53.444;9.902;2022-07-24T09:43:24;29.30;93.20
3998;DHT22;61314;53.444;9.902;2022-07-24T09:46:04;29.30;92.50
3998;DHT22;61314;53.444;9.902;2022-07-24T09:48:53;29.30;92.60
3998;DHT22;61314;53.444;9.902;2022-07-24T09:51:21;29.40;93.10
3998;DHT22;61314;53.444;9.902;2022-07-24T09:53:56;29.60;93.50
3998;DHT22;61314;53.444;9.902;2022-07-24T10:01:22;29.60;91.50
3998;DHT22;61314;53.444;9.902;2022-07-24T10:03:51;29.60;92.40
3998;DHT22;61314;53.444;9.902;2022-07-24T10:06:24;29.70;92.00
3998;DHT22;61314;53.444;9.902;2022-07-24T10:08:55;29.60;90.70
3998;DHT22;61314;53.444;9.902;2022-07-24T10:11:22;29.70;90.10
3998;DHT22;61314;53.444;9.902;2022-07-24T10:13:49;29.50;89.70
3998;DHT22;61314;53.444;9.902;2022-07-24T10:16:26;29.50;90.30
3998;DHT22;61314;53.444;9.902;2022-07-24T10:21:37;29.60;89.50
3998;DHT22;61314;53.444;9.902;2022-07-24T10:26:46;29.80;90.10
3998;DHT22;61314;53.444;9.902;2022-07-24T10:29:18;29.90;91.20
3998;DHT22;61314;53.444;9.902;2022-07-24T10:31:48;30.20;97.50
3998;DHT22;61314;53.444;9.902;2022-07-24T10:36:57;30.40;86.80
3998;DHT22;61314;53.444;9.902;2022-07-24T10:42:22;30.50;86.10
3998;DHT22;61314;53.444;9.902;2022-07-24T10:47:41;30.70;82.20
3998;DHT22;61314;53.444;9.902;2022-07-24T10:50:08;30.90;83.50
3998;DHT22;61314;53.444;9.902;2022-07-24T10:52:35;31.00;82.60
3998;DHT22;61314;53.444;9.902;2022-07-24T10:55:32;31.10;83.40
3998;DHT22;61314;53.444;9.902;2022-07-24T10:58:04;31.30;79.40
3998;DHT22;61314;53.444;9.902;2022-07-24T11:00:45;31.30;81.30
3998;DHT22;61314;53.444;9.902;2022-07-24T11:03:23;31.30;80.10
3998;DHT22;61314;53.444;9.902;2022-07-24T11:06:05;31.60;90.30
3998;DHT22;61314;53.444;9.902;2022-07-24T11:13:53;32.10;90.20
3998;DHT22;61314;53.444;9.902;2022-07-24T11:16:27;32.10;92.60
3998;DHT22;61314;53.444;9.902;2022-07-24T11:29:17;32.10;75.20
3998;DHT22;61314;53.444;9.902;2022-07-24T11:31:47;32.20;77.70
3998;DHT22;61314;53.444;9.902;2022-07-24T11:34:15;32.30;77.00
3998;DHT22;61314;53.444;9.902;2022-07-24T11:36:45;32.40;77.10
3998;DHT22;61314;53.444;9.902;2022-07-24T11:39:15;32.60;76.50
3998;DHT22;61314;53.444;9.902;2022-07-24T11:41:53;32.70;75.00
3998;DHT22;61314;53.444;9.902;2022-07-24T11:44:35;32.70;75.20
3998;DHT22;61314;53.444;9.902;2022-07-24T11:47:31;32.60;73.30
3998;DHT22;61314;53.444;9.902;2022-07-24T11:50:01;32.60;74.60
3998;DHT22;61314;53.444;9.902;2022-07-24T11:52:38;32.50;73.10
3998;DHT22;61314;53.444;9.902;2022-07-24T11:55:08;32.60;71.70
3998;DHT22;61314;53.444;9.902;2022-07-24T11:57:44;32.70;71.90
3998;DHT22;61314;53.444;9.902;2022-07-24T12:00:31;32.70;72.50
3998;DHT22;61314;53.444;9.902;2022-07-24T12:03:00;32.70;71.30
3998;DHT22;61314;53.444;9.902;2022-07-24T12:05:31;32.70;72.50
3998;DHT22;61314;53.444;9.902;2022-07-24T12:08:01;33.00;71.80
3998;DHT22;61314;53.444;9.902;2022-07-24T12:10:29;33.10;70.50
3998;DHT22;61314;53.444;9.902;2022-07-24T12:12:56;33.20;71.30
3998;DHT22;61314;53.444;9.902;2022-07-24T12:15:25;33.10;69.50
3998;DHT22;61314;53.444;9.902;2022-07-24T12:18:07;33.10;68.80
3998;DHT22;61314;53.444;9.902;2022-07-24T12:20:38;33.10;69.40
3998;DHT22;61314;53.444;9.902;2022-07-24T12:23:08;33.00;68.50
3998;DHT22;61314;53.444;9.902;2022-07-24T12:25:37;33.10;69.50
3998;DHT22;61314;53.444;9.902;2022-07-24T12:28:06;33.20;69.20
3998;DHT22;61314;53.444;9.902;2022-07-24T12:30:39;33.20;68.30
3998;DHT22;61314;53.444;9.902;2022-07-24T12:36:11;33.20;69.40
3998;DHT22;61314;53.444;9.902;2022-07-24T12:38:52;33.30;68.40
3998;DHT22;61314;53.444;9.902;2022-07-24T12:41:20;33.40;66.60
3998;DHT22;61314;53.444;9.902;2022-07-24T12:43:55;33.50;68.20
3998;DHT22;61314;53.444;9.902;2022-07-24T12:46:32;33.50;67.30
3998;DHT22;61314;53.444;9.902;2022-07-24T12:49:08;33.60;64.70
3998;DHT22;61314;53.444;9.902;2022-07-24T12:51:58;33.60;64.20
3998;DHT22;61314;53.444;9.902;2022-07-24T12:54:34;33.60;65.60
3998;DHT22;61314;53.444;9.902;2022-07-24T12:57:08;33.60;66.70
3998;DHT22;61314;53.444;9.902;2022-07-24T12:59:44;33.60;66.00
3998;DHT22;61314;53.444;9.902;2022-07-24T13:02:15;33.60;64.80
3998;DHT22;61314;53.444;9.902;2022-07-24T13:04:45;33.60;64.20
3998;DHT22;61314;53.444;9.902;2022-07-24T13:07:14;33.70;64.70
3998;DHT22;61314;53.444;9.902;2022-07-24T13:09:41;33.70;63.50
3998;DHT22;61314;53.444;9.902;2022-07-24T13:12:09;33.50;64.80
3998;DHT22;61314;53.444;9.902;2022-07-24T13:14:37;33.50;64.20
3998;DHT22;61314;53.444;9.902;2022-07-24T13:17:12;33.30;63.60
3998;DHT22;61314;53.444;9.902;2022-07-24T13:19:47;33.50;64.90
3998;DHT22;61314;53.444;9.902;2022-07-24T13:22:15;33.50;63.20
3998;DHT22;61314;53.444;9.902;2022-07-24T13:24:42;33.30;63.50
3998;DHT22;61314;53.444;9.902;2022-07-24T13:27:11;33.20;64.20
3998;DHT22;61314;53.444;9.902;2022-07-24T13:29:40;33.30;64.60
3998;DHT22;61314;53.444;9.902;2022-07-24T13:32:07;33.30;65.00
3998;DHT22;61314;53.444;9.902;2022-07-24T13:34:34;33.40;64.00
3998;DHT22;61314;53.444;9.902;2022-07-24T13:37:06;33.50;63.70
3998;DHT22;61314;53.444;9.902;2022-07-24T13:39:36;33.50;62.90
3998;DHT22;61314;53.444;9.902;2022-07-24T13:42:07;33.60;63.50
3998;DHT22;61314;53.444;9.902;2022-07-24T13:44:34;33.50;62.60
3998;DHT22;61314;53.444;9.902;2022-07-24T13:47:01;33.60;62.00
3998;DHT22;61314;53.444;9.902;2022-07-24T13:49:28;33.50;61.80
3998;DHT22;61314;53.444;9.902;2022-07-24T13:51:55;33.40;61.60
3998;DHT22;61314;53.444;9.902;2022-07-24T13:54:22;33.40;61.30
3998;DHT22;61314;53.444;9.902;2022-07-24T13:56:49;33.40;61.30
3998;DHT22;61314;53.444;9.902;2022-07-24T13:59:16;33.50;62.20
3998;DHT22;61314;53.444;9.902;2022-07-24T14:01:43;33.50;62.30
3998;DHT22;61314;53.444;9.902;2022-07-24T14:04:11;33.60;62.00
3998;DHT22;61314;53.444;9.902;2022-07-24T14:06:52;33.70;64.20
3998;DHT22;61314;53.444;9.902;2022-07-24T14:09:19;33.80;61.40
3998;DHT22;61314;53.444;9.902;2022-07-24T14:11:46;33.80;63.00
3998;DHT22;61314;53.444;9.902;2022-07-24T14:14:13;33.80;61.70
3998;DHT22;61314;53.444;9.902;2022-07-24T14:16:41;33.90;62.00
3998;DHT22;61314;53.444;9.902;2022-07-24T14:19:08;33.80;60.10
3998;DHT22;61314;53.444;9.902;2022-07-24T14:21:35;33.80;62.10
3998;DHT22;61314;53.444;9.902;2022-07-24T14:24:01;33.80;59.70
3998;DHT22;61314;53.444;9.902;2022-07-24T14:26:29;33.80;61.30
3998;DHT22;61314;53.444;9.902;2022-07-24T14:28:56;33.90;60.60
3998;DHT22;61314;53.444;9.902;2022-07-24T14:31:23;34.00;63.10
3998;DHT22;61314;53.444;9.902;2022-07-24T14:33:50;33.80;59.10
3998;DHT22;61314;53.444;9.902;2022-07-24T14:36:17;33.70;60.30
3998;DHT22;61314;53.444;9.902;2022-07-24T14:38:44;33.80;60.70
3998;DHT22;61314;53.444;9.902;2022-07-24T14:41:10;33.70;60.80
3998;DHT22;61314;53.444;9.902;2022-07-24T14:43:37;33.80;61.20
3998;DHT22;61314;53.444;9.902;2022-07-24T14:46:04;33.80;61.30
3998;DHT22;61314;53.444;9.902;2022-07-24T14:48:31;33.70;59.80
3998;DHT22;61314;53.444;9.902;2022-07-24T14:50:58;33.60;60.00
3998;DHT22;61314;53.444;9.902;2022-07-24T14:53:25;33.60;59.00
3998;DHT22;61314;53.444;9.902;2022-07-24T14:55:52;33.50;61.00
3998;DHT22;61314;53.444;9.902;2022-07-24T14:58:19;33.50;60.30
3998;DHT22;61314;53.444;9.902;2022-07-24T15:00:46;33.30;60.60
3998;DHT22;61314;53.444;9.902;2022-07-24T15:03:15;33.30;61.00
3998;DHT22;61314;53.444;9.902;2022-07-24T15:05:42;33.10;60.00
3998;DHT22;61314;53.444;9.902;2022-07-24T15:08:09;33.00;59.50
3998;DHT22;61314;53.444;9.902;2022-07-24T15:10:36;33.00;60.50
3998;DHT22;61314;53.444;9.902;2022-07-24T15:13:03;33.00;61.80
3998;DHT22;61314;53.444;9.902;2022-07-24T15:15:30;32.80;62.10
3998;DHT22;61314;53.444;9.902;2022-07-24T15:17:58;32.80;62.50
3998;DHT22;61314;53.444;9.902;2022-07-24T15:20:25;32.60;61.20
3998;DHT22;61314;53.444;9.902;2022-07-24T15:22:52;32.60;63.00
3998;DHT22;61314;53.444;9.902;2022-07-24T15:25:19;32.50;63.70
3998;DHT22;61314;53.444;9.902;2022-07-24T15:27:46;32.40;63.00
3998;DHT22;61314;53.444;9.902;2022-07-24T15:30:18;32.30;61.90
3998;DHT22;61314;53.444;9.902;2022-07-24T15:32:53;32.10;62.40
3998;DHT22;61314;53.444;9.902;2022-07-24T15:35:20;32.00;64.30
3998;DHT22;61314;53.444;9.902;2022-07-24T15:37:50;31.80;64.00
3998;DHT22;61314;53.444;9.902;2022-07-24T15:40:17;31.70;64.20
3998;DHT22;61314;53.444;9.902;2022-07-24T15:42:45;31.60;64.10
3998;DHT22;61314;53.444;9.902;2022-07-24T15:45:12;31.40;65.30
3998;DHT22;61314;53.444;9.902;2022-07-24T15:47:40;31.40;65.50
3998;DHT22;61314;53.444;9.902;2022-07-24T15:50:07;31.20;64.70
3998;DHT22;61314;53.444;9.902;2022-07-24T15:52:34;31.00;64.10
3998;DHT22;61314;53.444;9.902;2022-07-24T15:55:01;30.70;63.70
3998;DHT22;61314;53.444;9.902;2022-07-24T15:57:28;30.70;66.20
3998;DHT22;61314;53.444;9.902;2022-07-24T15:59:55;30.50;66.40
3998;DHT22;61314;53.444;9.902;2022-07-24T16:02:23;30.50;67.00
3998;DHT22;61314;53.444;9.902;2022-07-24T16:04:51;30.40;68.90
3998;DHT22;61314;53.444;9.902;2022-07-24T16:07:18;30.20;68.40
3998;DHT22;61314;53.444;9.902;2022-07-24T16:09:47;30.20;68.30
3998;DHT22;61314;53.444;9.902;2022-07-24T16:12:15;30.10;68.10
3998;DHT22;61314;53.444;9.902;2022-07-24T16:14:43;30.10;68.20
3998;DHT22;61314;53.444;9.902;2022-07-24T16:17:10;30.00;68.30
3998;DHT22;61314;53.444;9.902;2022-07-24T16:19:38;29.90;68.80
3998;DHT22;61314;53.444;9.902;2022-07-24T16:22:08;29.90;69.50
3998;DHT22;61314;53.444;9.902;2022-07-24T16:24:35;29.70;68.60
3998;DHT22;61314;53.444;9.902;2022-07-24T16:27:02;29.70;69.20
3998;DHT22;61314;53.444;9.902;2022-07-24T16:29:29;29.60;68.90
3998;DHT22;61314;53.444;9.902;2022-07-24T16:31:56;29.60;70.00
3998;DHT22;61314;53.444;9.902;2022-07-24T16:34:23;29.60;70.60
3998;DHT22;61314;53.444;9.902;2022-07-24T16:36:50;29.50;70.00
3998;DHT22;61314;53.444;9.902;2022-07-24T16:39:17;29.50;70.00
3998;DHT22;61314;53.444;9.902;2022-07-24T16:42:04;29.40;70.50
3998;DHT22;61314;53.444;9.902;2022-07-24T16:44:32;29.30;70.90
3998;DHT22;61314;53.444;9.902;2022-07-24T16:47:00;29.20;70.40
3998;DHT22;61314;53.444;9.902;2022-07-24T16:49:27;29.10;71.50
3998;DHT22;61314;53.444;9.902;2022-07-24T16:51:54;28.90;71.70
3998;DHT22;61314;53.444;9.902;2022-07-24T16:54:21;28.80;72.30
3998;DHT22;61314;53.444;9.902;2022-07-24T16:56:48;28.80;72.80
3998;DHT22;61314;53.444;9.902;2022-07-24T16:59:15;28.70;73.00
3998;DHT22;61314;53.444;9.902;2022-07-24T17:01:47;28.70;73.20
3998;DHT22;61314;53.444;9.902;2022-07-24T17:04:15;28.60;73.80
3998;DHT22;61314;53.444;9.902;2022-07-24T17:06:42;28.50;73.80
3998;DHT22;61314;53.444;9.902;2022-07-24T17:09:14;28.50;74.20
3998;DHT22;61314;53.444;9.902;2022-07-24T17:11:41;28.50;74.90
3998;DHT22;61314;53.444;9.902;2022-07-24T17:14:08;28.50;76.00
3998;DHT22;61314;53.444;9.902;2022-07-24T17:16:35;28.40;76.90
3998;DHT22;61314;53.444;9.902;2022-07-24T17:19:03;28.40;77.00
3998;DHT22;61314;53.444;9.902;2022-07-24T17:21:30;28.30;77.20
3998;DHT22;61314;53.444;9.902;2022-07-24T17:23:57;28.20;76.80
3998;DHT22;61314;53.444;9.902;2022-07-24T17:26:26;28.20;76.80
3998;DHT22;61314;53.444;9.902;2022-07-24T17:28:54;28.20;77.20
3998;DHT22;61314;53.444;9.902;2022-07-24T17:31:20;28.10;77.40
3998;DHT22;61314;53.444;9.902;2022-07-24T17:33:48;28.10;77.60
3998;DHT22;61314;53.444;9.902;2022-07-24T17:36:16;28.10;76.90
3998;DHT22;61314;53.444;9.902;2022-07-24T17:38:42;28.00;77.20
3998;DHT22;61314;53.444;9.902;2022-07-24T17:41:09;28.00;77.70
3998;DHT22;61314;53.444;9.902;2022-07-24T17:43:37;27.90;77.80
3998;DHT22;61314;53.444;9.902;2022-07-24T17:46:04;27.90;78.40
3998;DHT22;61314;53.444;9.902;2022-07-24T17:48:31;27.80;78.90
3998;DHT22;61314;53.444;9.902;2022-07-24T17:50:58;27.80;79.50
3998;DHT22;61314;53.444;9.902;2022-07-24T17:53:26;27.80;79.90
3998;DHT22;61314;53.444;9.902;2022-07-24T17:55:53;27.70;80.10
3998;DHT22;61314;53.444;9.902;2022-07-24T17:58:20;27.70;80.40
3998;DHT22;61314;53.444;9.902;2022-07-24T18:00:47;27.60;81.10
3998;DHT22;61314;53.444;9.902;2022-07-24T18:03:13;27.60;80.70
3998;DHT22;61314;53.444;9.902;2022-07-24T18:05:41;27.40;80.40
3998;DHT22;61314;53.444;9.902;2022-07-24T18:08:08;27.40;80.90
3998;DHT22;61314;53.444;9.902;2022-07-24T18:10:34;27.40;81.30
3998;DHT22;61314;53.444;9.902;2022-07-24T18:13:02;27.30;82.60
3998;DHT22;61314;53.444;9.902;2022-07-24T18:15:29;27.30;83.30
3998;DHT22;61314;53.444;9.902;2022-07-24T18:17:56;27.20;82.30
3998;DHT22;61314;53.444;9.902;2022-07-24T18:20:24;27.10;83.00
3998;DHT22;61314;53.444;9.902;2022-07-24T18:22:51;27.10;83.50
3998;DHT22;61314;53.444;9.902;2022-07-24T18:25:18;27.00;83.70
3998;DHT22;61314;53.444;9.902;2022-07-24T18:27:51;27.00;84.90
3998;DHT22;61314;53.444;9.902;2022-07-24T18:30:18;27.00;85.90
3998;DHT22;61314;53.444;9.902;2022-07-24T18:32:46;26.90;86.70
3998;DHT22;61314;53.444;9.902;2022-07-24T18:35:13;26.80;87.70
3998;DHT22;61314;53.444;9.902;2022-07-24T18:40:10;26.70;88.10
3998;DHT22;61314;53.444;9.902;2022-07-24T18:42:36;26.60;89.20
3998;DHT22;61314;53.444;9.902;2022-07-24T18:45:04;26.60;89.90
3998;DHT22;61314;53.444;9.902;2022-07-24T18:47:31;26.50;90.30
3998;DHT22;61314;53.444;9.902;2022-07-24T18:49:58;26.50;90.50
3998;DHT22;61314;53.444;9.902;2022-07-24T18:52:25;26.40;90.60
3998;DHT22;61314;53.444;9.902;2022-07-24T19:04:41;26.10;91.80
3998;DHT22;61314;53.444;9.902;2022-07-24T19:07:07;26.10;92.20
3998;DHT22;61314;53.444;9.902;2022-07-24T19:09:35;26.00;92.60
3998;DHT22;61314;53.444;9.902;2022-07-24T19:12:04;25.90;92.60
3998;DHT22;61314;53.444;9.902;2022-07-24T19:14:31;25.80;93.30
3998;DHT22;61314;53.444;9.902;2022-07-24T19:16:58;25.80;93.70
3998;DHT22;61314;53.444;9.902;2022-07-24T19:19:27;25.70;93.80
3998;DHT22;61314;53.444;9.902;2022-07-24T19:29:36;25.40;95.10
3998;DHT22;61314;53.444;9.902;2022-07-24T19:32:03;25.20;95.70
3998;DHT22;61314;53.444;9.902;2022-07-24T19:34:30;25.20;95.90
3998;DHT22;61314;53.444;9.902;2022-07-24T19:37:00;25.00;96.50
3998;DHT22;61314;53.444;9.902;2022-07-24T19:39:27;25.00;97.10
3998;DHT22;61314;53.444;9.902;2022-07-24T19:41:54;24.90;97.00
3998;DHT22;61314;53.444;9.902;2022-07-24T19:44:22;24.90;99.00
3998;DHT22;61314;53.444;9.902;2022-07-24T20:01:33;24.30;99.70
3998;DHT22;61314;53.444;9.902;2022-07-24T20:04:00;24.20;99.90
3998;DHT22;61314;53.444;9.902;2022-07-24T20:06:28;24.00;99.90
3998;DHT22;61314;53.444;9.902;2022-07-24T20:08:55;24.00;99.90
3998;DHT22;61314;53.444;9.902;2022-07-24T20:11:22;23.90;99.90
3998;DHT22;61314;53.444;9.902;2022-07-24T20:13:49;23.90;99.90
3998;DHT22;61314;53.444;9.902;2022-07-24T20:16:16;23.80;99.90
3998;DHT22;61314;53.444;9.902;2022-07-24T20:18:43;23.70;99.90
3998;DHT22;61314;53.444;9.902;2022-07-24T20:21:10;23.60;99.90
3998;DHT22;61314;53.444;9.902;2022-07-24T20:23:38;23.60;99.90
3998;DHT22;61314;53.444;9.902;2022-07-24T20:26:05;23.50;99.90
3998;DHT22;61314;53.444;9.902;2022-07-24T20:28:35;23.40;99.90
3998;DHT22;61314;53.444;9.902;2022-07-24T20:31:03;23.40;99.90
3998;DHT22;61314;53.444;9.902;2022-07-24T20:33:31;23.30;99.90
3998;DHT22;61314;53.444;9.902;2022-07-24T20:35:58;23.20;99.90
3998;DHT22;61314;53.444;9.902;2022-07-24T20:38:27;23.20;99.90
3998;DHT22;61314;53.444;9.902;2022-07-24T20:40:54;23.10;99.90
3998;DHT22;61314;53.444;9.902;2022-07-24T20:43:21;23.00;99.90
3998;DHT22;61314;53.444;9.902;2022-07-24T20:45:48;23.00;99.90
3998;DHT22;61314;53.444;9.902;2022-07-24T20:48:15;22.90;99.90
3998;DHT22;61314;53.444;9.902;2022-07-24T21:47:15;22.80;99.90
3998;DHT22;61314;53.444;9.902;2022-07-24T21:49:42;21.80;99.90
3998;DHT22;61314;53.444;9.902;2022-07-24T21:52:08;21.80;99.90
3998;DHT22;61314;53.444;9.902;2022-07-24T21:54:35;21.60;99.90
3998;DHT22;61314;53.444;9.902;2022-07-24T21:57:02;21.60;99.90
3998;DHT22;61314;53.444;9.902;2022-07-24T22:29:06;21.30;99.90
3998;DHT22;61314;53.444;9.902;2022-07-24T22:34:01;21.00;99.90
3998;DHT22;61314;53.444;9.902;2022-07-24T22:39:04;20.90;99.90
3998;DHT22;61314;53.444;9.902;2022-07-24T22:43:59;20.90;99.90
3998;DHT22;61314;53.444;9.902;2022-07-24T23:01:25;20.70;99.90
3998;DHT22;61314;53.444;9.902;2022-07-24T23:48:05;20.20;99.90
3998;DHT22;61314;53.444;9.902;2022-07-24T23:50:36;20.20;99.90
3998;DHT22;61314;53.444;9.902;2022-07-24T23:53:03;20.10;99.90
3998;DHT22;61314;53.444;9.902;2022-07-24T23:57:58;20.30;99.90
